Time;durP1;ratioP1;P1;durP2;ratioP2;P2;SDS_P1;SDS_P2;PMS_P1;PMS_P2;Temp;Humidity;BMP_temperature;BMP_pressure;BME280_temperature;BME280_humidity;BME280_pressure;Samples;Min_cycle;Max_cycle;Signal;HPM_P1;HPM_P2
2022/07/02 04:01:41;;;;;;;8.60;7.97;;;13.70;99.90;;;;;;5395295;23;20734;-69
2022/07/02 04:04:08;;;;;;;8.57;7.78;;;13.70;99.90;;;;;;4989197;28;20466;-69
2022/07/02 04:06:35;;;;;;;8.23;7.68;;;13.70;99.90;;;;;;4989953;28;20207;-69
2022/07/02 04:09:02;;;;;;;8.40;7.70;;;13.70;99.90;;;;;;4991697;28;20573;-69
2022/07/02 04:11:28;;;;;;;9.20;8.40;;;13.70;99.90;;;;;;4990793;28;20486;-69
2022/07/02 04:13:55;;;;;;;8.30;7.70;;;13.70;99.90;;;;;;4991926;28;20963;-69
2022/07/02 04:16:22;;;;;;;8.00;7.20;;;13.80;99.90;;;;;;4993863;28;20470;-70
2022/07/02 04:18:50;;;;;;;8.93;8.33;;;13.80;99.90;;;;;;4994978;28;20497;-70
2022/07/02 04:21:16;;;;;;;8.57;7.87;;;13.90;99.90;;;;;;4992679;28;20482;-70
2022/07/02 04:23:43;;;;;;;8.17;7.50;;;14.00;99.90;;;;;;4991616;28;20542;-70
2022/07/02 04:26:10;;;;;;;8.67;8.10;;;14.10;99.90;;;;;;4990817;28;20466;-70
2022/07/02 04:28:36;;;;;;;7.10;6.60;;;14.60;99.90;;;;;;4991376;28;20798;-69
2022/07/02 04:31:03;;;;;;;5.47;5.17;;;15.50;99.90;;;;;;4990504;28;20490;-69
2022/07/02 04:33:30;;;;;;;5.30;4.90;;;16.40;99.90;;;;;;4992368;28;20756;-70
2022/07/02 04:35:58;;;;;;;6.33;5.90;;;17.20;99.90;;;;;;4994919;28;20473;-69
2022/07/02 04:38:25;;;;;;;5.20;5.00;;;17.70;99.90;;;;;;4995220;28;20601;-69
2022/07/02 04:40:52;;;;;;;5.83;5.43;;;18.00;99.90;;;;;;4994576;28;20912;-69
2022/07/02 04:43:19;;;;;;;5.40;5.00;;;18.30;99.90;;;;;;4995178;28;20462;-69
2022/07/02 04:45:46;;;;;;;5.37;5.07;;;18.80;99.90;;;;;;4994615;28;20473;-69
2022/07/02 04:48:12;;;;;;;5.40;5.10;;;19.40;99.90;;;;;;4994869;28;20466;-70
2022/07/02 04:50:39;;;;;;;4.70;4.27;;;20.00;99.90;;;;;;4994734;28;20479;-70
2022/07/02 04:53:07;;;;;;;4.30;4.10;;;20.30;99.90;;;;;;4994060;28;20955;-68
2022/07/02 04:55:34;;;;;;;4.97;4.67;;;20.80;99.90;;;;;;4982621;28;20467;-67
2022/07/02 04:58:00;;;;;;;4.07;3.83;;;21.00;99.90;;;;;;4975082;28;20467;-70
2022/07/02 05:00:27;;;;;;;4.40;4.13;;;21.30;99.90;;;;;;4974329;28;20991;-70
2022/07/02 05:02:55;;;;;;;4.30;4.00;;;21.60;99.90;;;;;;4975000;28;20577;-68
2022/07/02 05:05:22;;;;;;;3.73;3.50;;;21.80;99.90;;;;;;4974966;28;20466;-68
2022/07/02 05:07:48;;;;;;;3.43;3.33;;;22.00;99.90;;;;;;4975242;28;20473;-68
2022/07/02 05:10:16;;;;;;;4.00;3.80;;;22.50;99.90;;;;;;4974282;28;20459;-68
2022/07/02 05:12:43;;;;;;;3.63;3.57;;;22.90;99.90;;;;;;4974943;28;20484;-68
2022/07/02 05:15:10;;;;;;;3.40;3.30;;;23.20;99.90;;;;;;4974353;28;20470;-68
2022/07/02 05:17:37;;;;;;;3.77;3.63;;;23.60;99.90;;;;;;4974687;28;20860;-68
2022/07/02 05:20:05;;;;;;;3.57;3.47;;;23.70;99.90;;;;;;4974510;28;20492;-68
2022/07/02 05:22:31;;;;;;;3.70;3.50;;;23.60;99.90;;;;;;4974643;28;20489;-68
2022/07/02 05:24:58;;;;;;;3.17;3.07;;;23.80;99.90;;;;;;4974000;28;20470;-67
2022/07/02 05:27:26;;;;;;;3.17;3.10;;;23.80;99.90;;;;;;4974797;28;20839;-67
2022/07/02 05:29:52;;;;;;;4.10;3.70;;;23.90;99.90;;;;;;4973847;28;20872;-67
2022/07/02 05:32:19;;;;;;;3.43;3.33;;;24.00;99.90;;;;;;4974629;28;20869;-67
2022/07/02 05:34:46;;;;;;;2.73;2.63;;;24.10;99.90;;;;;;4974582;28;20475;-67
2022/07/02 05:37:13;;;;;;;3.00;2.90;;;23.90;99.90;;;;;;4974313;28;20476;-67
2022/07/02 05:39:39;;;;;;;2.97;2.83;;;24.10;99.90;;;;;;4973783;28;20501;-67
2022/07/02 05:42:07;;;;;;;2.83;2.73;;;24.00;99.90;;;;;;4974330;28;20804;-67
2022/07/02 05:44:35;;;;;;;3.00;2.90;;;24.10;99.90;;;;;;4983740;28;20476;-67
2022/07/02 05:47:01;;;;;;;3.03;2.83;;;24.20;99.90;;;;;;4992696;28;20466;-67
2022/07/02 05:49:28;;;;;;;3.23;3.00;;;24.40;99.90;;;;;;4993624;28;20845;-67
2022/07/02 05:51:55;;;;;;;2.67;2.50;;;24.40;99.90;;;;;;4993536;28;20490;-66
2022/07/02 05:54:21;;;;;;;2.80;2.70;;;24.50;99.90;;;;;;4993986;28;20477;-66
2022/07/02 05:56:48;;;;;;;2.50;2.50;;;24.60;99.90;;;;;;4993170;28;20997;-66
2022/07/02 05:59:15;;;;;;;4.50;2.50;;;24.70;99.90;;;;;;4993659;28;20575;-66
2022/07/02 06:01:43;;;;;;;2.70;2.70;;;24.90;99.90;;;;;;4992601;28;20588;-66
2022/07/02 06:04:09;;;;;;;2.90;2.80;;;25.20;99.90;;;;;;4993801;28;20553;-66
2022/07/02 06:09:20;;;;;;;4.00;2.70;;;25.80;99.90;;;;;;4995041;28;20486;-67
2022/07/02 06:11:47;;;;;;;2.90;2.70;;;26.20;99.90;;;;;;4999235;28;20508;-66
2022/07/02 06:14:13;;;;;;;2.40;2.27;;;26.40;99.90;;;;;;4996314;28;20469;-66
2022/07/02 06:16:40;;;;;;;2.37;2.27;;;26.50;99.90;;;;;;4975860;28;20490;-69
2022/07/02 06:19:08;;;;;;;2.27;2.17;;;26.60;99.90;;;;;;4973937;28;20498;-66
2022/07/02 06:21:35;;;;;;;2.17;2.07;;;27.00;99.90;;;;;;4973308;28;20488;-66
2022/07/02 06:24:02;;;;;;;2.70;2.50;;;27.20;98.90;;;;;;4973546;28;20474;-68
2022/07/02 06:26:28;;;;;;;2.40;2.40;;;27.30;98.70;;;;;;4972988;28;20467;-67
2022/07/02 06:28:55;;;;;;;1.83;1.83;;;27.10;98.60;;;;;;4973790;28;20861;-68
2022/07/02 06:31:22;;;;;;;1.83;1.77;;;27.40;98.50;;;;;;4972852;28;20487;-68
2022/07/02 06:33:48;;;;;;;2.87;2.03;;;27.60;97.10;;;;;;4973484;28;20468;-68
2022/07/02 06:36:21;;;;;;;2.17;2.07;;;28.00;96.80;;;;;;4973350;28;20917;-68
2022/07/02 06:38:47;;;;;;;1.47;1.47;;;28.40;96.20;;;;;;4973134;28;20565;-68
2022/07/02 06:42:18;;;;;;;1.50;1.50;;;28.40;95.70;;;;;;4972465;28;20997;-67
2022/07/02 06:44:03;;;;;;;2.90;1.60;;;28.60;95.50;;;;;;4973174;28;20538;-67
2022/07/02 06:46:30;;;;;;;1.60;1.60;;;28.40;94.50;;;;;;4972631;28;20943;-68
2022/07/02 06:48:57;;;;;;;1.50;1.50;;;28.40;94.60;;;;;;4973110;28;20466;-68
2022/07/02 06:51:25;;;;;;;1.80;1.70;;;28.70;94.50;;;;;;4972602;28;20514;-68
2022/07/02 06:53:53;;;;;;;1.63;1.40;;;28.90;92.70;;;;;;4977333;28;20471;-68
2022/07/02 06:56:20;;;;;;;1.20;1.20;;;28.80;92.50;;;;;;4974874;28;20501;-67
2022/07/02 06:58:47;;;;;;;1.40;1.30;;;28.60;92.70;;;;;;4972518;28;20468;-67
2022/07/02 07:01:13;;;;;;;2.13;1.23;;;28.50;92.70;;;;;;4972088;28;20491;-67
2022/07/02 07:03:40;;;;;;;2.43;1.43;;;28.50;92.40;;;;;;4972983;28;20471;-67
2022/07/02 07:06:06;;;;;;;2.87;1.77;;;28.70;92.30;;;;;;4972431;28;20468;-67
2022/07/02 07:08:34;;;;;;;1.40;1.30;;;29.10;91.80;;;;;;4972963;28;20475;-67
2022/07/02 07:11:01;;;;;;;1.27;1.27;;;29.20;91.10;;;;;;4971962;28;20483;-68
2022/07/02 07:13:28;;;;;;;1.10;1.10;;;29.40;90.50;;;;;;4972697;28;20464;-68
2022/07/02 07:15:55;;;;;;;0.90;0.90;;;29.60;90.20;;;;;;4972150;28;20468;-68
2022/07/02 07:18:22;;;;;;;1.03;1.03;;;29.90;88.00;;;;;;4972635;28;20474;-68
2022/07/02 07:20:50;;;;;;;1.57;1.47;;;29.90;87.50;;;;;;4972125;28;20491;-67
2022/07/02 07:23:17;;;;;;;1.20;1.20;;;29.80;86.90;;;;;;4972448;28;20534;-69
2022/07/02 07:25:45;;;;;;;1.30;1.30;;;29.70;86.40;;;;;;4972053;28;20467;-68
2022/07/02 07:28:12;;;;;;;1.70;1.00;;;29.60;86.60;;;;;;4972450;28;20467;-67
2022/07/02 07:30:38;;;;;;;1.30;1.20;;;29.60;86.40;;;;;;4971636;28;20490;-68
2022/07/02 07:33:05;;;;;;;0.87;0.87;;;29.80;84.80;;;;;;4972423;28;20472;-68
2022/07/02 07:35:32;;;;;;;0.90;0.80;;;29.90;85.40;;;;;;4972264;28;20468;-68
2022/07/02 07:37:59;;;;;;;2.77;2.57;;;30.10;82.20;;;;;;4972504;28;20471;-67
2022/07/02 07:40:26;;;;;;;0.70;0.70;;;29.80;82.60;;;;;;4971329;28;20881;-67
2022/07/02 07:42:54;;;;;;;0.90;0.90;;;29.70;84.70;;;;;;4976919;28;20502;-68
2022/07/02 07:45:21;;;;;;;1.10;1.10;;;29.60;82.00;;;;;;4974351;28;20845;-67
2022/07/02 07:47:48;;;;;;;0.90;0.90;;;29.70;81.50;;;;;;4972121;28;20563;-67
2022/07/02 07:50:14;;;;;;;0.90;0.90;;;30.00;81.00;;;;;;4971594;28;20953;-68
2022/07/02 07:52:41;;;;;;;1.90;1.17;;;30.10;79.20;;;;;;4971918;28;20467;-67
2022/07/02 07:55:08;;;;;;;1.80;1.17;;;29.90;78.40;;;;;;4971514;28;20468;-68
2022/07/02 07:57:35;;;;;;;1.27;1.23;;;29.50;80.40;;;;;;4972037;28;20464;-68
2022/07/02 08:00:04;;;;;;;1.03;1.00;;;29.20;80.10;;;;;;4971084;28;20503;-68
2022/07/02 08:02:31;;;;;;;1.27;1.10;;;29.40;80.40;;;;;;4971796;28;20498;-68
2022/07/02 08:04:58;;;;;;;0.90;0.90;;;29.40;82.30;;;;;;4971872;28;20467;-68
2022/07/02 08:07:25;;;;;;;0.70;0.70;;;29.70;80.10;;;;;;4972060;28;20490;-68
2022/07/02 08:09:53;;;;;;;1.47;1.40;;;30.00;80.60;;;;;;4970724;28;20516;-67
2022/07/02 08:12:20;;;;;;;1.47;1.10;;;30.00;77.70;;;;;;4971685;28;20570;-68
2022/07/02 08:14:46;;;;;;;1.10;1.00;;;30.20;78.90;;;;;;4971565;28;20481;-68
2022/07/02 08:17:15;;;;;;;1.10;1.10;;;30.20;78.30;;;;;;4971760;28;20459;-68
2022/07/02 08:19:41;;;;;;;1.00;1.00;;;30.30;77.60;;;;;;4971491;28;20499;-68
2022/07/02 08:22:08;;;;;;;1.80;0.77;;;30.00;75.70;;;;;;4971716;28;20494;-67
2022/07/02 08:24:35;;;;;;;1.23;1.13;;;29.40;75.00;;;;;;4971070;28;20470;-67
2022/07/02 08:27:02;;;;;;;1.30;1.20;;;28.50;76.30;;;;;;4972126;28;20569;-68
2022/07/02 08:29:29;;;;;;;0.90;0.90;;;28.10;78.60;;;;;;4972880;28;20460;-68
2022/07/02 08:31:57;;;;;;;0.80;0.80;;;28.40;81.30;;;;;;4973095;28;20488;-69
2022/07/02 08:34:25;;;;;;;1.03;0.97;;;28.50;79.40;;;;;;4973926;28;20467;-68
2022/07/02 08:36:51;;;;;;;1.17;1.17;;;28.20;80.70;;;;;;4971800;28;20496;-67
2022/07/02 08:39:18;;;;;;;1.23;1.20;;;28.50;79.50;;;;;;4971530;28;20834;-67
2022/07/02 08:41:46;;;;;;;1.00;1.00;;;28.40;79.50;;;;;;4970494;28;20480;-67
2022/07/02 08:44:15;;;;;;;1.30;1.20;;;27.80;77.30;;;;;;4971867;28;20849;-67
2022/07/02 08:46:43;;;;;;;1.00;1.00;;;27.40;79.20;;;;;;4971063;28;20481;-67
2022/07/02 08:49:11;;;;;;;1.27;1.17;;;27.00;80.40;;;;;;4971605;28;20466;-68
2022/07/02 08:51:40;;;;;;;2.37;0.97;;;27.00;81.90;;;;;;4970941;28;20497;-68
2022/07/02 08:54:07;;;;;;;1.00;1.00;;;27.20;81.40;;;;;;4970925;28;20470;-67
2022/07/02 08:56:34;;;;;;;1.00;1.00;;;27.50;81.00;;;;;;4970761;28;20471;-67
2022/07/02 08:59:02;;;;;;;1.10;0.80;;;27.10;78.70;;;;;;4971523;28;20947;-67
2022/07/02 09:01:29;;;;;;;1.00;1.00;;;26.60;79.70;;;;;;4970290;28;20499;-67
2022/07/02 09:03:56;;;;;;;2.60;1.03;;;26.40;80.30;;;;;;4971164;28;20466;-67
2022/07/02 09:06:28;;;;;;;1.13;0.87;;;26.70;78.80;;;;;;4979752;28;20538;-67
2022/07/02 09:08:56;;;;;;;1.17;1.00;;;27.00;79.20;;;;;;4990725;28;20493;-67
2022/07/02 09:11:23;;;;;;;1.70;0.90;;;27.10;80.00;;;;;;4989863;28;20478;-67
2022/07/02 09:13:51;;;;;;;0.80;0.80;;;27.10;79.80;;;;;;4990879;28;20476;-67
2022/07/02 09:16:18;;;;;;;1.20;1.20;;;27.20;81.10;;;;;;4990200;28;20481;-67
2022/07/02 09:18:45;;;;;;;1.43;1.20;;;27.10;80.40;;;;;;4990755;28;20485;-67
2022/07/02 09:21:11;;;;;;;2.70;1.10;;;27.00;80.20;;;;;;4991776;28;20852;-68
2022/07/02 09:23:46;;;;;;;1.47;1.37;;;26.70;83.20;;;;;;4994012;28;20472;-67
2022/07/02 09:26:19;;;;;;;1.40;1.17;;;26.20;83.80;;;;;;4993690;28;21021;-67
2022/07/02 09:28:55;;;;;;;0.87;0.87;;;25.60;80.90;;;;;;4994055;28;20518;-67
2022/07/02 09:31:22;;;;;;;0.90;0.90;;;25.60;84.20;;;;;;4992993;28;20934;-67
2022/07/02 09:33:49;;;;;;;1.83;1.10;;;25.40;81.50;;;;;;4993746;28;20572;-67
2022/07/02 09:36:15;;;;;;;1.00;1.00;;;25.10;82.00;;;;;;4993600;28;20974;-67
2022/07/02 09:38:43;;;;;;;2.00;0.90;;;24.60;82.30;;;;;;4993904;28;20955;-67
2022/07/02 09:41:13;;;;;;;1.90;1.50;;;24.30;84.10;;;;;;4992651;28;20500;-67
2022/07/02 09:43:41;;;;;;;1.30;1.30;;;24.30;84.20;;;;;;4993999;28;20459;-67
2022/07/02 09:46:16;;;;;;;1.27;1.20;;;24.30;84.30;;;;;;4993022;28;20466;-67
2022/07/02 09:48:43;;;;;;;1.30;1.20;;;24.50;83.40;;;;;;4993857;28;20466;-67
2022/07/02 09:51:10;;;;;;;1.17;1.07;;;24.60;81.80;;;;;;4993456;28;20582;-67
2022/07/02 09:53:47;;;;;;;1.60;1.20;;;24.70;80.60;;;;;;4993718;28;20467;-67
2022/07/02 09:56:14;;;;;;;2.63;1.50;;;24.70;81.20;;;;;;4992972;28;20521;-67
2022/07/02 09:58:42;;;;;;;1.00;1.00;;;24.90;83.40;;;;;;4993444;28;20785;-68
2022/07/02 10:01:09;;;;;;;1.03;0.90;;;25.20;82.60;;;;;;4992637;28;20505;-68
2022/07/02 10:03:47;;;;;;;1.40;1.30;;;25.30;80.30;;;;;;4993408;28;20470;-67
2022/07/02 10:06:14;;;;;;;1.40;1.30;;;25.30;83.40;;;;;;4993169;28;20503;-67
2022/07/02 10:08:41;;;;;;;1.50;1.10;;;25.20;80.30;;;;;;4993695;28;20828;-67
2022/07/02 10:11:09;;;;;;;1.00;0.90;;;25.20;79.10;;;;;;4992234;28;20487;-67
2022/07/02 10:13:37;;;;;;;1.13;1.03;;;25.30;81.00;;;;;;5015574;23;20502;-71
2022/07/02 10:16:10;;;;;;;1.23;1.13;;;25.20;79.70;;;;;;4992381;28;20462;-71
2022/07/02 10:18:39;;;;;;;0.80;0.80;;;25.20;80.20;;;;;;4993165;28;20849;-71
2022/07/02 10:21:08;;;;;;;1.20;1.10;;;25.20;80.60;;;;;;4992874;28;20494;-72
2022/07/02 10:23:35;;;;;;;1.27;1.27;;;25.20;78.90;;;;;;4992749;28;20490;-71
2022/07/02 10:26:02;;;;;;;1.10;1.00;;;25.10;81.60;;;;;;4992230;28;20463;-71
2022/07/02 10:28:28;;;;;;;0.90;0.90;;;25.20;81.40;;;;;;4993094;28;20489;-71
2022/07/02 10:30:57;;;;;;;1.90;1.30;;;25.30;77.90;;;;;;4992121;28;20463;-71
2022/07/02 10:33:32;;;;;;;1.23;0.97;;;25.30;79.80;;;;;;4978704;28;20487;-70
2022/07/02 10:36:00;;;;;;;1.00;1.00;;;25.20;79.10;;;;;;4992737;28;20462;-72
2022/07/02 10:38:31;;;;;;;1.03;1.03;;;25.30;79.30;;;;;;4992976;28;20466;-71
2022/07/02 10:40:58;;;;;;;1.20;0.70;;;25.30;80.80;;;;;;4992069;28;20513;-70
2022/07/02 10:43:26;;;;;;;1.33;1.00;;;25.50;79.50;;;;;;4992898;28;20498;-71
2022/07/02 10:46:04;;;;;;;0.93;0.93;;;25.70;78.80;;;;;;4992226;28;20774;-71
2022/07/02 10:48:33;;;;;;;0.87;0.87;;;25.80;77.50;;;;;;4992634;28;20816;-72
2022/07/02 10:51:00;;;;;;;1.23;0.97;;;25.90;78.70;;;;;;4992294;28;20471;-71
2022/07/02 10:53:29;;;;;;;1.00;1.00;;;25.90;78.60;;;;;;4992428;28;20487;-71
2022/07/02 10:56:02;;;;;;;0.80;0.80;;;26.10;79.00;;;;;;4991924;28;20469;-70
2022/07/02 10:58:30;;;;;;;0.93;0.93;;;26.10;78.60;;;;;;4992888;28;20494;-70
2022/07/02 11:01:08;;;;;;;1.37;1.03;;;26.20;77.30;;;;;;4991206;28;20491;-71
2022/07/02 11:03:36;;;;;;;1.43;1.40;;;26.20;77.20;;;;;;4992265;28;20493;-71
2022/07/02 11:06:05;;;;;;;1.07;0.90;;;26.00;76.80;;;;;;4972712;28;20464;-72
2022/07/02 11:08:48;;;;;;;1.90;0.90;;;25.90;77.20;;;;;;4972766;28;20543;-70
2022/07/02 11:11:17;;;;;;;0.90;0.90;;;25.80;79.50;;;;;;4972209;28;20460;-71
2022/07/02 11:13:48;;;;;;;0.90;0.90;;;25.80;79.20;;;;;;4972418;28;20546;-70
2022/07/02 11:16:23;;;;;;;1.70;1.20;;;26.00;80.00;;;;;;4972367;28;20463;-70
2022/07/02 11:18:53;;;;;;;0.90;0.90;;;26.00;78.60;;;;;;4972402;28;21003;-70
2022/07/02 11:21:22;;;;;;;1.00;1.00;;;26.10;79.40;;;;;;4972092;28;21030;-71
2022/07/02 11:23:49;;;;;;;1.33;1.00;;;25.90;78.70;;;;;;4972178;28;20494;-70
2022/07/02 11:26:18;;;;;;;1.07;1.07;;;25.60;79.30;;;;;;4971646;28;20468;-70
2022/07/02 11:28:45;;;;;;;1.13;1.13;;;25.40;79.50;;;;;;4972398;28;20968;-70
2022/07/02 11:31:12;;;;;;;2.03;1.67;;;25.40;80.20;;;;;;4971802;28;20471;-70
2022/07/02 11:33:44;;;;;;;1.03;1.03;;;25.10;80.30;;;;;;4972477;28;20488;-72
2022/07/02 11:36:12;;;;;;;1.30;1.10;;;25.30;81.30;;;;;;4972091;28;20467;-72
2022/07/02 11:38:39;;;;;;;0.90;0.90;;;25.40;79.60;;;;;;4972594;28;20468;-71
2022/07/02 11:41:16;;;;;;;11.63;1.40;;;25.40;79.30;;;;;;4971611;28;20933;-72
2022/07/02 11:43:44;;;;;;;0.83;0.83;;;25.40;78.70;;;;;;4979821;28;20487;-72
2022/07/02 11:46:12;;;;;;;0.70;0.70;;;25.60;79.00;;;;;;4979849;28;20566;-72
2022/07/02 11:48:38;;;;;;;1.07;1.07;;;25.60;77.40;;;;;;4972327;28;20968;-71
2022/07/02 11:51:05;;;;;;;0.73;0.73;;;25.80;77.90;;;;;;4971846;28;20464;-71
2022/07/02 11:53:33;;;;;;;1.20;1.20;;;25.60;78.80;;;;;;4971793;28;20483;-71
2022/07/02 11:56:06;;;;;;;1.57;1.47;;;25.60;78.80;;;;;;4971758;28;20470;-71
2022/07/02 11:58:39;;;;;;;0.80;0.80;;;25.70;77.90;;;;;;4972207;28;20478;-71
2022/07/02 12:01:06;;;;;;;1.70;0.83;;;26.00;78.80;;;;;;4971221;28;20493;-72
2022/07/02 12:03:33;;;;;;;1.07;0.97;;;26.30;77.70;;;;;;4971932;28;21024;-71
2022/07/02 12:06:00;;;;;;;5.40;1.00;;;26.40;75.90;;;;;;4971758;28;20849;-71
2022/07/02 12:08:27;;;;;;;0.90;0.90;;;26.50;77.10;;;;;;4972214;28;20466;-71
2022/07/02 12:10:55;;;;;;;0.93;0.93;;;26.50;75.70;;;;;;4971405;28;20904;-70
2022/07/02 12:13:22;;;;;;;1.00;0.90;;;26.50;76.30;;;;;;4971675;28;20502;-73
2022/07/02 12:15:49;;;;;;;0.80;0.80;;;26.60;73.90;;;;;;4971392;28;20498;-70
2022/07/02 12:18:18;;;;;;;1.27;1.20;;;26.60;73.50;;;;;;4971678;28;20478;-69
2022/07/02 12:20:44;;;;;;;0.83;0.83;;;26.50;73.90;;;;;;4971981;28;20494;-70
2022/07/02 12:23:11;;;;;;;1.30;1.20;;;26.30;73.60;;;;;;4971740;28;20497;-69
2022/07/02 12:25:44;;;;;;;2.10;0.80;;;26.30;74.30;;;;;;4971420;28;20465;-69
2022/07/02 12:30:57;;;;;;;2.00;0.90;;;26.70;74.70;;;;;;4971025;28;20461;-71
2022/07/02 12:33:31;;;;;;;1.10;1.10;;;26.70;73.80;;;;;;4980044;28;20500;-71
2022/07/02 12:36:02;;;;;;;2.03;1.13;;;26.70;74.70;;;;;;4990632;28;20460;-70
2022/07/02 12:38:29;;;;;;;0.90;0.90;;;26.60;76.20;;;;;;4991106;28;20561;-70
2022/07/02 12:41:00;;;;;;;0.80;0.80;;;26.60;74.80;;;;;;4990346;28;20502;-71
2022/07/02 12:43:28;;;;;;;0.70;0.70;;;26.70;73.60;;;;;;4990741;28;20530;-71
2022/07/02 12:46:05;;;;;;;1.03;0.60;;;26.90;74.10;;;;;;4990494;28;20462;-70
2022/07/02 12:48:32;;;;;;;0.93;0.93;;;26.90;72.50;;;;;;4990945;28;20491;-71
2022/07/02 12:50:59;;;;;;;1.03;0.97;;;27.00;72.90;;;;;;4990784;28;20870;-71
2022/07/02 12:53:28;;;;;;;1.50;1.37;;;27.00;73.80;;;;;;4990799;28;20549;-71
2022/07/02 12:55:58;;;;;;;0.77;0.77;;;26.80;73.70;;;;;;4993218;28;20462;-70
2022/07/02 12:58:25;;;;;;;0.83;0.83;;;26.60;74.20;;;;;;4995470;28;21011;-70
2022/07/02 13:00:53;;;;;;;1.20;1.10;;;26.50;75.80;;;;;;4993879;28;20577;-70
2022/07/02 13:03:21;;;;;;;1.20;1.10;;;26.60;74.70;;;;;;4994580;28;20482;-70
2022/07/02 13:05:49;;;;;;;0.87;0.77;;;26.80;75.30;;;;;;4976632;28;20507;-70
2022/07/02 13:08:17;;;;;;;0.83;0.83;;;26.70;74.30;;;;;;4974797;28;20953;-71
2022/07/02 13:10:45;;;;;;;1.20;1.20;;;26.40;74.20;;;;;;4974391;28;20824;-70
2022/07/02 13:13:12;;;;;;;1.17;1.17;;;26.00;74.20;;;;;;4975113;28;20873;-70
2022/07/02 13:15:38;;;;;;;1.00;1.00;;;25.80;74.80;;;;;;4974336;28;20495;-72
2022/07/02 13:18:07;;;;;;;0.83;0.83;;;25.80;75.20;;;;;;4975063;28;20515;-71
2022/07/02 13:20:33;;;;;;;3.00;1.20;;;26.00;75.60;;;;;;4974504;28;20467;-71
2022/07/02 13:23:00;;;;;;;1.10;1.00;;;26.30;75.60;;;;;;4974418;28;20480;-71
2022/07/02 13:25:27;;;;;;;1.07;1.07;;;26.30;75.00;;;;;;4974324;28;20823;-71
2022/07/02 13:27:54;;;;;;;0.90;0.90;;;26.30;75.30;;;;;;4974788;28;20474;-71
2022/07/02 13:30:21;;;;;;;1.10;1.10;;;26.40;75.50;;;;;;4974104;28;20486;-71
2022/07/02 13:32:49;;;;;;;1.07;1.07;;;26.50;74.80;;;;;;4974319;28;20455;-70
2022/07/02 13:35:18;;;;;;;1.00;1.00;;;26.50;74.60;;;;;;4974022;28;20471;-70
2022/07/02 13:37:45;;;;;;;1.27;1.27;;;26.50;73.90;;;;;;4974448;28;20828;-71
2022/07/02 13:40:14;;;;;;;1.53;1.00;;;26.60;73.50;;;;;;4973603;28;20463;-71
2022/07/02 13:42:42;;;;;;;1.20;1.20;;;26.70;73.20;;;;;;4977329;28;20849;-71
2022/07/02 13:45:10;;;;;;;0.87;0.87;;;26.60;73.40;;;;;;4978076;28;20538;-70
2022/07/02 13:47:38;;;;;;;1.00;1.00;;;26.50;73.70;;;;;;4973897;28;21011;-71
2022/07/02 13:50:05;;;;;;;1.20;1.20;;;26.70;74.80;;;;;;4973534;28;20960;-72
2022/07/02 13:52:33;;;;;;;0.87;0.87;;;26.90;75.00;;;;;;4974174;28;20827;-71
2022/07/02 13:55:00;;;;;;;0.97;0.97;;;26.90;73.80;;;;;;4973462;28;20491;-71
2022/07/02 13:57:27;;;;;;;1.00;1.00;;;27.00;74.80;;;;;;4973920;28;20479;-71
2022/07/02 13:59:54;;;;;;;0.87;0.87;;;26.90;74.20;;;;;;4973299;28;20487;-70
2022/07/02 14:02:21;;;;;;;1.00;1.00;;;26.50;73.80;;;;;;4973815;28;20999;-71
2022/07/02 14:04:48;;;;;;;1.33;1.30;;;26.20;75.10;;;;;;4973581;28;20492;-72
2022/07/02 14:07:15;;;;;;;1.57;1.47;;;26.10;75.60;;;;;;4973329;28;20468;-71
2022/07/02 14:09:43;;;;;;;1.00;1.00;;;26.20;75.90;;;;;;4972946;28;20468;-70
2022/07/02 14:12:10;;;;;;;1.03;1.03;;;26.40;75.10;;;;;;4973827;28;20962;-71
2022/07/02 14:14:38;;;;;;;0.70;0.70;;;26.30;74.60;;;;;;4973550;28;20911;-71
2022/07/02 14:17:05;;;;;;;1.53;1.47;;;26.10;75.30;;;;;;4973215;28;20961;-70
2022/07/02 14:19:32;;;;;;;1.40;1.30;;;26.10;74.90;;;;;;4973669;28;20852;-70
2022/07/02 14:21:59;;;;;;;2.20;1.20;;;26.00;74.40;;;;;;4973632;28;20511;-70
2022/07/02 14:24:26;;;;;;;0.87;0.87;;;25.90;74.70;;;;;;4973502;28;20519;-70
2022/07/02 14:26:54;;;;;;;2.00;1.10;;;26.00;74.90;;;;;;4973022;28;20490;-70
2022/07/02 14:29:21;;;;;;;1.17;0.83;;;26.30;75.30;;;;;;4973714;28;20840;-70
2022/07/02 14:31:50;;;;;;;1.03;1.03;;;26.70;75.80;;;;;;4972675;28;20567;-71
2022/07/02 14:34:17;;;;;;;1.00;1.00;;;27.00;75.70;;;;;;4989493;28;20537;-71
2022/07/02 14:36:44;;;;;;;1.00;1.00;;;27.30;73.20;;;;;;4992741;28;20521;-72
2022/07/02 14:39:10;;;;;;;1.10;1.10;;;27.00;73.00;;;;;;4992936;28;20558;-71
2022/07/02 14:41:38;;;;;;;1.50;1.50;;;26.90;72.40;;;;;;4991899;28;20986;-70
2022/07/02 14:44:06;;;;;;;1.00;1.00;;;26.70;72.70;;;;;;4992492;28;20826;-71
2022/07/02 14:46:33;;;;;;;1.13;1.13;;;26.60;73.70;;;;;;4992035;28;20878;-70
2022/07/02 14:49:00;;;;;;;1.30;1.30;;;26.50;74.50;;;;;;4992740;28;20467;-70
2022/07/02 14:51:28;;;;;;;2.43;1.17;;;26.50;74.20;;;;;;4992117;28;20465;-71
2022/07/02 14:53:55;;;;;;;1.63;1.17;;;26.50;73.20;;;;;;4992069;28;20483;-71
2022/07/02 14:56:22;;;;;;;1.23;1.23;;;26.40;74.20;;;;;;4992256;28;20606;-71
2022/07/02 14:58:49;;;;;;;3.33;1.40;;;26.30;74.70;;;;;;4992432;28;20462;-71
2022/07/02 15:01:17;;;;;;;1.27;1.17;;;26.10;75.40;;;;;;4991400;28;20948;-71
2022/07/02 15:03:44;;;;;;;1.07;1.07;;;26.50;76.60;;;;;;4990760;28;20487;-69
2022/07/02 15:06:11;;;;;;;1.40;1.33;;;26.60;73.20;;;;;;4980476;28;20531;-70
2022/07/02 15:08:38;;;;;;;1.00;1.00;;;26.60;74.00;;;;;;4972629;28;20459;-70
2022/07/02 15:11:05;;;;;;;1.20;1.10;;;26.70;73.90;;;;;;4972063;28;20463;-71
2022/07/02 15:16:13;;;;;;;1.17;1.17;;;26.90;73.30;;;;;;4973386;28;20466;-70
2022/07/02 15:18:41;;;;;;;1.23;1.23;;;26.90;73.70;;;;;;4973150;28;20830;-71
2022/07/02 15:21:13;;;;;;;1.03;1.03;;;26.90;72.50;;;;;;4973480;28;20468;-72
2022/07/02 15:23:41;;;;;;;1.50;1.40;;;27.00;72.20;;;;;;4973157;28;20487;-71
2022/07/02 15:26:08;;;;;;;1.00;1.00;;;26.90;72.90;;;;;;4972296;28;20475;-71
2022/07/02 15:28:40;;;;;;;1.50;1.50;;;27.00;73.40;;;;;;4972759;28;21011;-71
2022/07/02 15:31:08;;;;;;;1.10;1.00;;;27.10;72.40;;;;;;4971868;28;20467;-70
2022/07/02 15:33:36;;;;;;;1.07;1.07;;;27.20;71.80;;;;;;4972402;28;20511;-70
2022/07/02 15:36:05;;;;;;;1.07;1.07;;;27.10;71.40;;;;;;4972235;28;20464;-70
2022/07/02 15:38:32;;;;;;;1.13;1.13;;;26.80;72.50;;;;;;4972257;28;20475;-70
2022/07/02 15:41:00;;;;;;;1.30;1.30;;;26.70;74.60;;;;;;4971360;28;20468;-69
2022/07/02 15:43:27;;;;;;;1.43;1.43;;;26.60;74.00;;;;;;4971855;28;20499;-70
2022/07/02 15:45:55;;;;;;;2.07;1.60;;;26.50;74.00;;;;;;4971412;28;20555;-70
2022/07/02 15:48:24;;;;;;;1.23;1.23;;;26.70;72.80;;;;;;4972173;28;20571;-70
2022/07/02 15:51:00;;;;;;;1.83;1.47;;;26.60;73.20;;;;;;4971917;28;20514;-70
2022/07/02 15:53:31;;;;;;;1.10;1.10;;;26.60;73.60;;;;;;4971673;28;20479;-70
2022/07/02 15:56:02;;;;;;;1.40;1.40;;;26.40;71.80;;;;;;4971670;28;20468;-70
2022/07/02 15:58:36;;;;;;;1.03;1.00;;;26.20;73.90;;;;;;4972159;28;20816;-69
2022/07/02 16:01:04;;;;;;;1.47;1.40;;;26.30;73.90;;;;;;4971413;28;20523;-69
2022/07/02 16:03:34;;;;;;;2.23;1.20;;;26.20;73.90;;;;;;4971681;28;20844;-70
2022/07/02 16:06:02;;;;;;;1.37;1.30;;;26.40;73.50;;;;;;4972114;28;20460;-71
2022/07/02 16:08:33;;;;;;;1.20;1.20;;;26.60;74.20;;;;;;4972019;28;20483;-71
2022/07/02 16:11:00;;;;;;;1.00;1.00;;;26.80;74.30;;;;;;4971118;28;20535;-70
2022/07/02 16:13:27;;;;;;;1.60;1.10;;;27.00;73.80;;;;;;4994558;23;20953;-68
2022/07/02 16:15:55;;;;;;;1.23;1.10;;;27.00;72.20;;;;;;4970943;28;20513;-66
2022/07/02 16:18:22;;;;;;;1.40;1.30;;;27.00;72.50;;;;;;4971948;28;20886;-66
2022/07/02 16:20:49;;;;;;;1.47;1.40;;;26.90;70.80;;;;;;4971652;28;20474;-66
2022/07/02 16:23:18;;;;;;;1.03;1.03;;;26.90;70.40;;;;;;4971617;28;20853;-66
2022/07/02 16:25:46;;;;;;;1.00;1.00;;;26.70;71.10;;;;;;4951994;29;20475;-66
2022/07/02 16:28:13;;;;;;;1.10;1.10;;;26.60;72.00;;;;;;4952457;29;20476;-66
2022/07/02 16:30:45;;;;;;;1.00;1.00;;;26.50;72.00;;;;;;4954640;28;20464;-66
2022/07/02 16:33:18;;;;;;;1.10;1.10;;;26.50;72.20;;;;;;4949959;29;20967;-66
2022/07/02 16:35:50;;;;;;;2.53;1.40;;;26.40;72.00;;;;;;4936768;29;20491;-66
2022/07/02 16:38:20;;;;;;;1.57;1.47;;;26.30;71.90;;;;;;4937011;29;20477;-66
2022/07/02 16:40:49;;;;;;;1.23;0.90;;;26.50;72.30;;;;;;4936137;29;20470;-66
2022/07/02 16:43:18;;;;;;;1.10;1.10;;;26.60;71.80;;;;;;4937179;29;20532;-66
2022/07/02 16:45:48;;;;;;;1.90;1.03;;;26.60;70.40;;;;;;4936580;29;20465;-66
2022/07/02 16:48:15;;;;;;;0.90;0.90;;;26.50;70.40;;;;;;4937109;29;20465;-66
2022/07/02 16:50:47;;;;;;;1.10;1.10;;;26.40;71.60;;;;;;4936513;29;20505;-66
2022/07/02 16:53:16;;;;;;;1.00;1.00;;;26.50;71.30;;;;;;4936907;29;20556;-66
2022/07/02 16:55:45;;;;;;;1.30;1.30;;;26.50;71.20;;;;;;4936720;29;20580;-67
2022/07/02 16:58:14;;;;;;;1.20;1.20;;;26.50;71.60;;;;;;4937086;29;20477;-67
2022/07/02 17:00:41;;;;;;;1.50;1.50;;;26.30;72.00;;;;;;4936032;29;20469;-67